Flight Track Log - Related Links

Times and Time Zones

All times are in EDT time to prevent confusion due to time zone crossing. See the AAY860 flight status page for this flight to view local times or setup timezone preferences in your user account.

Time Position Orientation Groundspeed Altitude Reporting Facility
EDT Latitude Longitude Course Direction KTS MPH feet Rate Location/Type
Wed 06:28:56 AM 27.8500 -82.6833 233° Southwest 179 206 2,500  Level Tampa TRACON
Wed 06:29:56 AM 27.8167 -82.7333 233° Southwest 275 316 4,600 2,549 Climbing Tampa TRACON
Wed 06:32:09 AM 27.9664 -82.7986 339° North 252 290 10,700 2,394 Climbing Jacksonville Center
Wed 06:33:09 AM 28.0561 -82.8267 345° North 290 334 12,300 2,050 Climbing Jacksonville Center
Wed 06:34:09 AM 28.1561 -82.8503 348° North 333 383 14,800 2,400 Climbing Jacksonville Center
Wed 06:35:09 AM 28.2542 -82.8783 346° North 353 406 17,100 1,983 Climbing Jacksonville Center
Wed 06:36:10 AM 28.3564 -82.9067 346° North 364 419 18,800 1,750 Climbing Jacksonville Center
Wed 06:37:09 AM 28.4608 -82.9350 347° North 376 433 20,600 1,613 Climbing Jacksonville Center
Wed 06:38:09 AM 28.5569 -82.9589 348° North 376 433 22,000 1,500 Climbing Jacksonville Center
Wed 06:39:09 AM 28.6653 -82.9897 346° North 387 445 23,600 1,550 Climbing Jacksonville Center
Wed 06:40:09 AM 28.7800 -83.0206 347° North 400 460 25,100 1,400 Climbing Jacksonville Center
Wed 06:41:09 AM 28.8928 -83.0539 345° North 407 468 26,400 1,350 Climbing Jacksonville Center
Wed 06:42:09 AM 29.0097 -83.0872 346° North 419 482 27,800 1,300 Climbing Jacksonville Center
Wed 06:43:09 AM 29.1286 -83.1183 347° North 425 489 29,000 1,150 Climbing Jacksonville Center
Wed 06:44:09 AM 29.2475 -83.1519 346° North 430 495 30,100 1,200 Climbing Jacksonville Center
Wed 06:45:09 AM 29.3664 -83.1856 346° North 430 495 31,400 1,400 Climbing Jacksonville Center
Wed 06:46:09 AM 29.5042 -83.2267 345° North 444 511 32,900 1,350 Climbing Jacksonville Center
Wed 06:47:09 AM 29.6147 -83.2581 346° North 438 504 34,100 441 Climbing Jacksonville Center
Wed 06:53:11 AM 30.3114 -83.4518 346° North 419 482 36,000 269 Climbing FlightAware ADS-B (KONZ)
Wed 06:54:13 AM 30.4285 -83.4855 346° North 421 484 36,000  Level FlightAware ADS-B (KONZ)
Wed 06:55:23 AM 30.5574 -83.5224 346° North 422 486 36,000  Level FlightAware ADS-B (KONZ)
Wed 06:55:53 AM 30.6150 -83.5389 346° North 423 487 36,000  Level FlightAware ADS-B (KONZ)
Wed 06:56:23 AM 30.6715 -83.5551 346° North 423 487 36,000  Level FlightAware ADS-B (KONZ)
Wed 06:57:22 AM 30.7879 -83.5887 346° North 423 487 36,000  Level FlightAware ADS-B (KONZ)
Wed 06:57:53 AM 30.8471 -83.6058 346° North 423 487 36,000  Level FlightAware ADS-B (KONZ)
Wed 06:58:34 AM 30.9242 -83.6280 346° North 423 487 36,000  Level FlightAware ADS-B (KONZ)
Wed 06:59:34 AM 31.0377 -83.6608 346° North 423 487 36,000  Level FlightAware ADS-B (KONZ)
Wed 07:00:09 AM 31.0972 -83.6786 346° North 415 478 36,000  Level Jacksonville Center
Wed 07:01:09 AM 31.2117 -83.7136 345° North 415 478 36,000  Level Jacksonville Center
Wed 07:02:09 AM 31.3264 -83.7464 346° North 415 478 36,000  Level Jacksonville Center
Wed 07:04:15 AM 31.5481 -83.8147 345° North 413 475 36,000  Level Atlanta Center
Wed 07:05:15 AM 31.6714 -83.8533 345° North 413 475 36,000  Level Atlanta Center
Wed 07:06:15 AM 31.7903 -83.8872 346° North 418 481 36,000  Level Atlanta Center
Wed 07:07:15 AM 31.9011 -83.9164 347° North 412 474 36,000  Level Atlanta Center
Wed 07:08:15 AM 32.0117 -83.9483 346° North 412 474 36,000  Level Atlanta Center
Wed 07:09:15 AM 32.1244 -83.9825 346° North 412 474 36,000  Level Atlanta Center
Wed 07:10:15 AM 32.2350 -84.0142 346° North 412 474 36,000  Level Atlanta Center
Wed 07:11:15 AM 32.3478 -84.0486 346° North 412 474 36,000  Level Atlanta Center
Wed 07:12:15 AM 32.4583 -84.0806 346° North 412 474 36,000  Level Atlanta Center
Wed 07:13:15 AM 32.5711 -84.0783 North 404 465 36,000  Level Atlanta Center
Wed 07:14:15 AM 32.6858 -84.0733 North 404 465 36,000  Level Atlanta Center
Wed 07:15:15 AM 32.8006 -84.0661 North 404 465 36,000  Level Atlanta Center
Wed 07:16:15 AM 32.9114 -84.0586 North 399 459 36,000  Level Atlanta Center
Wed 07:17:15 AM 33.0239 -84.0561 North 399 459 36,000  Level Atlanta Center
Wed 07:18:15 AM 33.1264 -84.0511 North 404 465 36,000  Level Atlanta Center
Wed 07:19:15 AM 33.2369 -84.0439 North 404 465 36,000  Level Atlanta Center
Wed 07:20:15 AM 33.3475 -84.0364 North 404 465 36,000  Level Atlanta Center
Wed 07:25:52 AM 34.0201 -83.9994 North 400 460 36,000  Level FlightAware ADS-B (KDZJ)
Wed 07:26:32 AM 34.0955 -83.9953 North 400 460 36,000  Level FlightAware ADS-B (KDZJ)
Wed 07:27:11 AM 34.1710 -83.9912 North 400 460 36,000  Level FlightAware ADS-B (KDZJ)
Wed 07:27:52 AM 34.2472 -83.9872 North 400 460 36,000  Level FlightAware ADS-B (KDZJ)
Wed 07:28:31 AM 34.3221 -83.9830 North 400 460 36,000  Level FlightAware ADS-B (KDZJ)
Wed 07:29:12 AM 34.3983 -83.9788 North 400 460 36,000  Level FlightAware ADS-B (KDZJ)
Wed 07:29:51 AM 34.4733 -83.9746 North 402 463 36,000  Level FlightAware ADS-B (KDZJ)
Wed 07:30:32 AM 34.5507 -83.9703 North 403 464 36,000  Level FlightAware ADS-B (KDZJ)
Wed 07:31:12 AM 34.6259 -83.9662 North 403 464 36,000  Level FlightAware ADS-B (KDZJ)
Wed 07:31:51 AM 34.7005 -83.9620 North 403 464 36,000  Level FlightAware ADS-B (KDZJ)
Wed 07:32:31 AM 34.7780 -83.9576 North 402 463 36,000  Level FlightAware ADS-B (KDZJ)
Wed 07:33:11 AM 34.8530 -83.9536 North 401 461 36,000  Level FlightAware ADS-B (KDZJ)
Wed 07:33:52 AM 34.9308 -83.9493 North 401 461 36,000  Level FlightAware ADS-B (KDZJ)
Wed 07:34:31 AM 35.0058 -83.9452 North 402 463 36,000  Level FlightAware ADS-B (KDZJ)
Wed 07:35:10 AM 35.0794 -83.9410 North 403 464 36,000 -370 Level FlightAware ADS-B (KDZJ)
Wed 07:35:52 AM 35.1590 -83.9366 North 401 461 35,500 -815 Descending FlightAware ADS-B (KDZJ)
Wed 07:36:31 AM 35.2337 -83.9323 North 404 465 34,900 -975 Descending FlightAware ADS-B (KDZJ)
Wed 07:37:12 AM 35.3105 -83.9281 North 415 478 34,200 -1,024 Descending FlightAware ADS-B (KDZJ)
Wed 07:37:53 AM 35.3912 -83.9237 North 418 481 33,500 -878 Descending FlightAware ADS-B (KDZJ)
Wed 07:39:15 AM 35.5242 -83.9189 North 404 465 32,400 -887 Descending Atlanta Center
Wed 07:40:15 AM 35.6389 -83.9111 North 404 465 31,400 -1,000 Descending Atlanta Center
Wed 07:41:15 AM 35.7536 -83.9031 North 404 465 30,400 -1,500 Descending Atlanta Center
Wed 07:42:15 AM 35.8706 -83.9003 North 404 465 28,400 -1,650 Descending Atlanta Center
Wed 07:43:15 AM 35.9831 -83.9156 354° North 404 465 27,100 -1,451 Descending Atlanta Center
Wed 07:45:17 AM 36.1936 -83.9736 347° North 401 461 24,000 -1,011 Descending Indianapolis Center
Wed 07:46:19 AM 36.3006 -84.0025 348° North 398 458 24,000  Level Indianapolis Center
Wed 07:47:21 AM 36.4069 -84.0325 347° North 398 458 24,000  Level Indianapolis Center
Wed 07:48:22 AM 36.5261 -84.0642 348° North 398 458 24,000  Level Indianapolis Center
Wed 07:49:24 AM 36.6342 -84.0950 347° North 397 457 24,000 -48 Level Indianapolis Center
Wed 07:50:26 AM 36.7422 -84.1250 347° North 397 457 23,900 -677 Descending Indianapolis Center
Wed 07:51:28 AM 36.8669 -84.1606 347° North 396 456 22,600 -1,548 Descending Indianapolis Center
Wed 07:52:30 AM 36.9728 -84.1897 348° North 392 451 20,700 -1,805 Descending Indianapolis Center
Wed 07:53:31 AM 37.0769 -84.2181 348° North 387 445 18,900 -1,707 Descending Indianapolis Center
Wed 07:54:33 AM 37.1794 -84.2475 347° North 381 438 17,200 -1,645 Descending Indianapolis Center
Wed 07:55:35 AM 37.2806 -84.2772 347° North 376 433 15,500 -1,645 Descending Indianapolis Center
Wed 07:56:37 AM 37.3803 -84.3039 348° North 368 423 13,800 -1,645 Descending Indianapolis Center
Wed 07:57:39 AM 37.4775 -84.3314 347° North 364 419 12,100 -1,548 Descending Indianapolis Center
Wed 07:58:41 AM 37.5825 -84.3611 347° North 338 389 10,600 -1,694 Descending Indianapolis Center
Wed 07:59:43 AM 37.6611 -84.3850 346° North 300 345 8,600 -1,756 Descending Indianapolis Center
Wed 08:00:44 AM 37.7397 -84.4081 347° North 293 337 7,000 -1,561 Descending Indianapolis Center
Wed 08:01:46 AM 37.8167 -84.4283 348° North 286 329 5,400 -1,452 Descending Indianapolis Center
Wed 08:02:48 AM 37.8933 -84.4503 347° North 281 323 4,000 -968 Descending Indianapolis Center
Wed 08:03:50 AM 37.9631 -84.4686 348° North 267 307 3,400 -532 Descending Indianapolis Center
Wed 08:04:52 AM 38.0272 -84.4861 348° North 226 260 2,900 -581 Descending Indianapolis Center
Wed 08:05:54 AM 38.0589 -84.5289 313° West 187 215 2,200 -629 Descending Indianapolis Center
Wed 08:06:56 AM 38.0633 -84.5694 278° West 153 176 1,600 -581 Descending Indianapolis Center
Wed 08:08:00 AM 38.0333 -84.6000 302° West  Level FlightAware Approximate
Wed 08:15:00 AM 38.0368 -84.6086 302° West  Level Estimated

Login

Don't have an account? Register now (free) for customized features, flight alerts, and more!